Time,TemperatureF,DewpointF,PressureIn,WindDirection,WindDirectionDegrees,WindSpeedMPH,WindSpeedGustMPH,Humidity,HourlyPrecipIn,Conditions,Clouds,dailyrainin,SoftwareType,DateUTC
2013-02-25 00:01:00,66.0,65.7,29.55,East,94,6.0,10.0,99,0.00,,,0.00,meteohub,2013-02-25 06:01:00,
2013-02-25 00:06:00,66.0,65.7,29.56,East,98,6.0,11.0,99,0.00,,,0.00,meteohub,2013-02-25 06:06:00,
2013-02-25 00:11:00,66.2,65.8,29.55,ESE,106,4.0,11.0,99,0.00,,,0.00,meteohub,2013-02-25 06:11:00,
2013-02-25 00:16:00,66.2,65.8,29.56,East,101,5.0,11.0,99,0.00,,,0.00,meteohub,2013-02-25 06:16:00,
2013-02-25 00:21:00,66.2,65.8,29.55,SE,126,5.0,9.0,99,0.00,,,0.00,meteohub,2013-02-25 06:21:00,
2013-02-25 00:26:00,66.4,66.0,29.55,ESE,122,8.0,8.0,99,0.00,,,0.00,meteohub,2013-02-25 06:26:00,
2013-02-25 00:31:00,66.4,66.0,29.55,SE,128,5.0,9.0,99,0.00,,,0.00,meteohub,2013-02-25 06:31:00,
2013-02-25 00:36:00,66.4,66.0,29.55,SE,136,6.0,10.0,99,0.00,,,0.00,meteohub,2013-02-25 06:36:00,
2013-02-25 00:41:00,66.4,66.0,29.55,ESE,112,5.0,10.0,99,0.00,,,0.00,meteohub,2013-02-25 06:41:00,
2013-02-25 00:46:00,66.4,66.0,29.54,SE,137,5.0,10.0,99,0.00,,,0.00,meteohub,2013-02-25 06:46:00,
2013-02-25 00:51:00,66.6,66.2,29.54,ESE,122,7.0,12.0,99,0.00,,,0.00,meteohub,2013-02-25 06:51:00,
2013-02-25 00:56:00,66.4,66.0,29.54,SE,143,8.0,12.0,99,0.00,,,0.00,meteohub,2013-02-25 06:56:00,
2013-02-25 01:01:00,66.2,65.8,29.54,ESE,113,5.0,12.0,99,0.00,,,0.00,meteohub,2013-02-25 07:01:00,
2013-02-25 01:06:00,66.4,66.0,29.54,SE,131,7.0,10.0,99,0.00,,,0.00,meteohub,2013-02-25 07:06:00,
2013-02-25 01:11:00,66.0,65.5,29.54,SE,124,6.0,9.0,98,0.00,,,0.00,meteohub,2013-02-25 07:11:00,
2013-02-25 01:16:00,66.0,65.5,29.54,SE,143,6.0,10.0,98,0.00,,,0.00,meteohub,2013-02-25 07:16:00,
2013-02-25 01:21:00,66.0,65.5,29.54,SE,146,6.0,10.0,98,0.00,,,0.00,meteohub,2013-02-25 07:21:00,
2013-02-25 01:26:00,65.8,65.3,29.53,SE,138,4.0,10.0,98,0.00,,,0.00,meteohub,2013-02-25 07:26:00,
2013-02-25 01:31:00,65.7,65.1,29.53,SE,136,4.0,9.0,98,0.00,,,0.00,meteohub,2013-02-25 07:31:00,
2013-02-25 01:36:00,65.7,65.1,29.53,SSE,160,4.0,9.0,98,0.00,,,0.00,meteohub,2013-02-25 07:36:00,
2013-02-25 01:41:00,65.7,65.1,29.53,East,101,2.0,9.0,98,0.00,,,0.00,meteohub,2013-02-25 07:41:00,
2013-02-25 01:46:00,65.5,64.9,29.53,ESE,119,5.0,9.0,98,0.00,,,0.00,meteohub,2013-02-25 07:46:00,
2013-02-25 01:51:00,65.3,64.8,29.53,East,94,3.0,7.0,98,0.00,,,0.00,meteohub,2013-02-25 07:51:00,
2013-02-25 01:56:00,65.3,64.8,29.53,SE,127,4.0,6.0,98,0.00,,,0.00,meteohub,2013-02-25 07:56:00,
2013-02-25 02:01:00,65.1,64.6,29.52,ESE,122,4.0,6.0,98,0.00,,,0.00,meteohub,2013-02-25 08:01:00,
2013-02-25 02:06:00,65.1,64.6,29.52,SE,131,5.0,6.0,98,0.00,,,0.00,meteohub,2013-02-25 08:06:00,
2013-02-25 02:11:00,65.1,64.6,29.52,SE,130,3.0,6.0,98,0.00,,,0.00,meteohub,2013-02-25 08:11:00,
2013-02-25 02:16:00,65.1,64.6,29.52,SE,124,5.0,7.0,98,0.00,,,0.00,meteohub,2013-02-25 08:16:00,
2013-02-25 02:21:00,65.1,64.6,29.52,SSE,153,5.0,8.0,98,0.00,,,0.00,meteohub,2013-02-25 08:21:00,
2013-02-25 02:27:00,65.1,64.8,29.52,SE,138,3.0,8.0,99,0.00,,,0.00,meteohub,2013-02-25 08:27:00,
2013-02-25 02:31:00,65.1,64.8,29.52,SE,134,6.0,8.0,99,0.00,,,0.00,meteohub,2013-02-25 08:31:00,
2013-02-25 02:36:00,65.3,64.9,29.51,SE,143,9.0,9.0,99,0.00,,,0.00,meteohub,2013-02-25 08:36:00,
2013-02-25 02:41:00,65.5,65.1,29.51,SE,127,5.0,9.0,99,0.00,,,0.00,meteohub,2013-02-25 08:41:00,
2013-02-25 02:46:00,65.5,65.1,29.50,SSE,155,6.0,11.0,99,0.00,,,0.00,meteohub,2013-02-25 08:46:00,
2013-02-25 02:51:00,65.7,65.3,29.50,SSE,150,5.0,11.0,99,0.00,,,0.00,meteohub,2013-02-25 08:51:00,
2013-02-25 02:56:00,65.7,65.3,29.49,SE,141,11.0,11.0,99,0.00,,,0.00,meteohub,2013-02-25 08:56:00,
2013-02-25 03:02:00,65.8,65.5,29.49,ESE,123,7.0,12.0,99,0.00,,,0.00,meteohub,2013-02-25 09:02:00,
2013-02-25 03:07:00,65.8,65.5,29.49,SSE,162,6.0,12.0,99,0.00,,,0.00,meteohub,2013-02-25 09:07:00,
2013-02-25 03:12:00,66.0,65.7,29.49,SE,143,9.0,12.0,99,0.00,,,0.00,meteohub,2013-02-25 09:12:00,
2013-02-25 03:17:00,66.4,66.0,29.49,SSE,159,6.0,12.0,99,0.00,,,0.00,meteohub,2013-02-25 09:17:00,
2013-02-25 03:22:00,66.6,66.2,29.49,South,169,12.0,13.0,99,0.00,,,0.00,meteohub,2013-02-25 09:22:00,
2013-02-25 03:27:00,66.9,66.6,29.49,SE,139,8.0,13.0,99,0.00,,,0.00,meteohub,2013-02-25 09:27:00,
2013-02-25 03:32:00,67.3,66.9,29.48,SE,138,12.0,13.0,99,0.00,,,0.00,meteohub,2013-02-25 09:32:00,
2013-02-25 03:37:00,67.5,67.1,29.48,South,180,12.0,16.0,99,0.00,,,0.00,meteohub,2013-02-25 09:37:00,
2013-02-25 03:42:00,67.6,67.3,29.48,SSE,165,12.0,16.0,99,0.00,,,0.00,meteohub,2013-02-25 09:42:00,
2013-02-25 03:47:00,67.6,67.3,29.49,SSW,208,11.0,16.0,99,0.00,,,0.00,meteohub,2013-02-25 09:47:00,
2013-02-25 03:52:00,67.6,67.3,29.49,SSW,195,4.0,16.0,99,0.00,,,0.00,meteohub,2013-02-25 09:52:00,
2013-02-25 03:57:00,67.8,67.3,29.49,WNW,288,2.0,15.0,98,0.00,,,0.00,meteohub,2013-02-25 09:57:00,
2013-02-25 04:02:00,67.8,67.3,29.49,SSE,167,5.0,14.0,98,0.00,,,0.00,meteohub,2013-02-25 10:02:00,
2013-02-25 04:07:00,67.8,67.3,29.49,SE,145,5.0,12.0,98,0.00,,,0.00,meteohub,2013-02-25 10:07:00,
2013-02-25 04:12:00,67.8,67.3,29.49,SSW,193,3.0,12.0,98,0.00,,,0.00,meteohub,2013-02-25 10:12:00,
2013-02-25 04:17:00,67.8,67.3,29.49,South,177,7.0,12.0,98,0.00,,,0.00,meteohub,2013-02-25 10:17:00,
2013-02-25 04:22:00,68.0,67.1,29.49,South,173,7.0,11.0,97,0.00,,,0.00,meteohub,2013-02-25 10:22:00,
2013-02-25 04:27:00,68.0,67.1,29.49,South,179,6.0,11.0,97,0.00,,,0.00,meteohub,2013-02-25 10:27:00,
2013-02-25 04:32:00,68.0,67.1,29.49,SE,146,5.0,11.0,97,0.00,,,0.00,meteohub,2013-02-25 10:32:00,
2013-02-25 04:37:00,68.2,67.3,29.49,South,188,5.0,10.0,97,0.00,,,0.00,meteohub,2013-02-25 10:37:00,
2013-02-25 04:42:00,68.2,67.3,29.48,SSW,200,2.0,9.0,97,0.00,,,0.00,meteohub,2013-02-25 10:42:00,
2013-02-25 04:47:00,68.2,67.3,29.48,SSW,198,4.0,9.0,97,0.00,,,0.00,meteohub,2013-02-25 10:47:00,
2013-02-25 04:52:00,68.4,67.5,29.49,SSW,204,3.0,10.0,97,0.00,,,0.00,meteohub,2013-02-25 10:52:00,
2013-02-25 04:57:00,68.4,67.5,29.49,South,175,2.0,10.0,97,0.00,,,0.00,meteohub,2013-02-25 10:57:00,
2013-02-25 05:02:00,68.4,67.5,29.49,SSW,201,2.0,10.0,97,0.00,,,0.00,meteohub,2013-02-25 11:02:00,
2013-02-25 05:07:00,68.4,67.5,29.49,SW,219,1.0,9.0,97,0.00,,,0.00,meteohub,2013-02-25 11:07:00,
2013-02-25 05:12:00,68.5,67.6,29.49,SW,226,1.0,8.0,97,0.00,,,0.00,meteohub,2013-02-25 11:12:00,
2013-02-25 05:17:00,68.5,67.6,29.49,NW,309,1.0,8.0,97,0.00,,,0.00,meteohub,2013-02-25 11:17:00,
2013-02-25 05:22:00,68.5,67.6,29.49,SSW,205,5.0,7.0,97,0.00,,,0.00,meteohub,2013-02-25 11:22:00,
2013-02-25 05:26:00,68.7,67.8,29.49,SW,216,8.0,8.0,97,0.00,,,0.00,meteohub,2013-02-25 11:26:00,
2013-02-25 05:31:00,68.7,67.5,29.49,WSW,252,4.0,9.0,96,0.00,,,0.00,meteohub,2013-02-25 11:31:00,
2013-02-25 05:37:00,68.9,67.6,29.49,SSW,207,3.0,9.0,96,0.00,,,0.00,meteohub,2013-02-25 11:37:00,
2013-02-25 05:42:00,69.1,67.8,29.49,SSW,198,7.0,13.0,96,0.00,,,0.00,meteohub,2013-02-25 11:42:00,
2013-02-25 05:47:00,69.1,67.8,29.49,South,190,5.0,13.0,96,0.00,,,0.00,meteohub,2013-02-25 11:47:00,
2013-02-25 05:52:00,69.1,67.8,29.49,SW,225,3.0,13.0,96,0.00,,,0.00,meteohub,2013-02-25 11:52:00,
2013-02-25 05:57:00,69.1,67.8,29.49,West,267,4.0,12.0,96,0.00,,,0.00,meteohub,2013-02-25 11:57:00,
2013-02-25 06:01:00,69.1,67.8,29.50,NW,319,2.0,9.0,96,0.00,,,0.00,meteohub,2013-02-25 12:01:00,
2013-02-25 06:06:00,69.1,67.8,29.51,SSE,150,1.0,9.0,96,0.00,,,0.00,meteohub,2013-02-25 12:06:00,
2013-02-25 06:11:00,69.1,67.8,29.51,West,280,1.0,8.0,96,0.00,,,0.00,meteohub,2013-02-25 12:11:00,
2013-02-25 06:16:00,69.1,67.8,29.51,WSW,243,3.0,4.0,96,0.00,,,0.00,meteohub,2013-02-25 12:16:00,
2013-02-25 06:21:00,69.1,67.8,29.52,WNW,293,4.0,6.0,96,0.00,,,0.00,meteohub,2013-02-25 12:21:00,
2013-02-25 06:26:00,69.3,68.0,29.52,WNW,283,4.0,6.0,96,0.00,,,0.00,meteohub,2013-02-25 12:26:00,
2013-02-25 06:31:00,69.3,68.0,29.53,WNW,288,4.0,6.0,96,0.00,,,0.00,meteohub,2013-02-25 12:31:00,
2013-02-25 06:36:00,69.3,67.8,29.55,WNW,292,6.0,7.0,95,0.00,,,0.00,meteohub,2013-02-25 12:36:00,
2013-02-25 06:42:00,69.1,67.6,29.55,West,280,9.0,10.0,95,0.00,,,0.00,meteohub,2013-02-25 12:42:00,
2013-02-25 06:47:00,69.3,67.8,29.55,WNW,288,8.0,13.0,95,0.00,,,0.00,meteohub,2013-02-25 12:47:00,
2013-02-25 06:52:00,69.3,67.8,29.55,West,280,9.0,13.0,95,0.00,,,0.00,meteohub,2013-02-25 12:52:00,
2013-02-25 06:57:00,69.3,67.8,29.55,West,281,5.0,13.0,95,0.00,,,0.00,meteohub,2013-02-25 12:57:00,
2013-02-25 07:02:00,69.3,67.8,29.56,WNW,290,5.0,12.0,95,0.00,,,0.00,meteohub,2013-02-25 13:02:00,
2013-02-25 07:08:00,69.4,68.0,29.56,WNW,298,6.0,12.0,95,0.00,,,0.00,meteohub,2013-02-25 13:08:00,
2013-02-25 07:13:00,69.4,67.6,29.56,WNW,293,5.0,12.0,94,0.00,,,0.00,meteohub,2013-02-25 13:13:00,
2013-02-25 07:18:00,69.3,67.5,29.56,WNW,299,5.0,13.0,94,0.00,,,0.00,meteohub,2013-02-25 13:18:00,
2013-02-25 07:23:00,69.3,67.5,29.56,NW,309,6.0,13.0,94,0.00,,,0.00,meteohub,2013-02-25 13:23:00,
2013-02-25 07:28:00,69.1,66.9,29.56,West,274,9.0,13.0,93,0.00,,,0.00,meteohub,2013-02-25 13:28:00,
2013-02-25 07:33:00,69.1,66.9,29.57,West,274,7.0,11.0,93,0.00,,,0.00,meteohub,2013-02-25 13:33:00,
2013-02-25 07:38:00,68.9,66.6,29.57,WNW,290,5.0,11.0,92,0.00,,,0.00,meteohub,2013-02-25 13:38:00,
2013-02-25 07:43:00,68.7,66.4,29.57,NW,320,4.0,11.0,92,0.00,,,0.00,meteohub,2013-02-25 13:43:00,
2013-02-25 07:48:00,68.7,66.4,29.57,WNW,287,6.0,10.0,92,0.00,,,0.00,meteohub,2013-02-25 13:48:00,
2013-02-25 07:53:00,68.7,66.4,29.57,West,280,8.0,9.0,92,0.00,,,0.00,meteohub,2013-02-25 13:53:00,
2013-02-25 07:59:00,68.7,66.0,29.58,NW,306,5.0,9.0,91,0.00,,,0.00,meteohub,2013-02-25 13:59:00,
2013-02-25 08:04:00,68.7,66.0,29.58,NW,306,7.0,11.0,91,0.00,,,0.00,meteohub,2013-02-25 14:04:00,
2013-02-25 08:09:00,68.9,66.2,29.59,WNW,300,7.0,11.0,91,0.00,,,0.00,meteohub,2013-02-25 14:09:00,
2013-02-25 08:14:00,68.7,65.7,29.59,WNW,301,7.0,11.0,90,0.00,,,0.00,meteohub,2013-02-25 14:14:00,
2013-02-25 08:19:00,68.7,65.7,29.60,WNW,293,7.0,13.0,90,0.00,,,0.00,meteohub,2013-02-25 14:19:00,
2013-02-25 08:24:00,68.5,65.8,29.60,West,276,11.0,13.0,91,0.00,,,0.00,meteohub,2013-02-25 14:24:00,
2013-02-25 08:29:00,68.4,65.7,29.60,West,278,19.0,19.0,91,0.00,,,0.00,meteohub,2013-02-25 14:29:00,
2013-02-25 08:34:00,68.4,64.9,29.61,WNW,290,16.0,16.0,89,0.00,,,0.00,meteohub,2013-02-25 14:34:00,
2013-02-25 08:39:00,66.7,58.6,29.62,NW,316,23.0,31.0,75,0.01,,,0.01,meteohub,2013-02-25 14:39:00,
2013-02-25 08:44:00,65.7,44.2,29.62,NNW,328,13.0,31.0,46,0.01,,,0.01,meteohub,2013-02-25 14:44:00,
2013-02-25 08:49:00,65.1,43.3,29.63,WNW,294,10.0,31.0,45,0.01,,,0.01,meteohub,2013-02-25 14:49:00,
2013-02-25 08:55:00,64.9,43.2,29.63,NW,316,15.0,30.0,45,0.01,,,0.01,meteohub,2013-02-25 14:55:00,
2013-02-25 09:00:00,65.3,42.8,29.63,NW,307,13.0,30.0,44,0.01,,,0.01,meteohub,2013-02-25 15:00:00,
2013-02-25 09:05:00,65.8,41.5,29.64,WNW,299,17.0,27.0,41,0.01,,,0.01,meteohub,2013-02-25 15:05:00,
2013-02-25 09:10:00,66.4,41.4,29.64,NW,309,23.0,28.0,40,0.01,,,0.01,meteohub,2013-02-25 15:10:00,
2013-02-25 09:15:00,66.6,40.1,29.65,NW,326,16.0,28.0,38,0.01,,,0.01,meteohub,2013-02-25 15:15:00,
2013-02-25 09:20:00,66.7,39.0,29.65,WNW,295,10.0,28.0,36,0.01,,,0.01,meteohub,2013-02-25 15:20:00,
2013-02-25 09:25:00,66.7,39.0,29.65,WNW,292,24.0,28.0,36,0.01,,,0.01,meteohub,2013-02-25 15:25:00,
2013-02-25 09:30:00,66.9,37.6,29.66,NW,306,16.0,26.0,34,0.01,,,0.01,meteohub,2013-02-25 15:30:00,
2013-02-25 09:35:00,67.1,36.3,29.66,NW,316,17.0,27.0,32,0.00,,,0.01,meteohub,2013-02-25 15:35:00,
2013-02-25 09:40:00,67.5,37.4,29.67,NNW,327,18.0,28.0,33,0.00,,,0.01,meteohub,2013-02-25 15:40:00,
2013-02-25 09:45:00,67.3,35.6,29.66,NW,309,12.0,28.0,31,0.00,,,0.01,meteohub,2013-02-25 15:45:00,
2013-02-25 09:50:00,67.6,34.2,29.66,NW,309,16.0,28.0,29,0.00,,,0.01,meteohub,2013-02-25 15:50:00,
2013-02-25 09:55:00,67.8,32.5,29.67,NW,309,20.0,30.0,27,0.00,,,0.01,meteohub,2013-02-25 15:55:00,
2013-02-25 10:00:00,68.2,32.9,29.67,WNW,298,19.0,33.0,27,0.00,,,0.01,meteohub,2013-02-25 16:00:00,
2013-02-25 10:05:00,68.4,33.1,29.67,NW,320,17.0,33.0,27,0.00,,,0.01,meteohub,2013-02-25 16:05:00,
2013-02-25 10:10:00,68.4,33.1,29.67,NW,320,16.0,29.0,27,0.00,,,0.01,meteohub,2013-02-25 16:10:00,
2013-02-25 10:15:00,68.4,32.2,29.67,NW,306,21.0,28.0,26,0.00,,,0.01,meteohub,2013-02-25 16:15:00,
2013-02-25 10:20:00,68.5,32.4,29.68,NW,319,19.0,31.0,26,0.00,,,0.01,meteohub,2013-02-25 16:20:00,
2013-02-25 10:25:00,68.7,30.4,29.67,WNW,287,17.0,31.0,24,0.00,,,0.01,meteohub,2013-02-25 16:25:00,
2013-02-25 10:30:00,68.7,29.5,29.68,WNW,300,17.0,28.0,23,0.00,,,0.01,meteohub,2013-02-25 16:30:00,
2013-02-25 10:36:00,68.7,28.4,29.67,NW,314,22.0,31.0,22,0.00,,,0.01,meteohub,2013-02-25 16:36:00,
2013-02-25 10:41:00,69.1,26.2,29.67,WNW,303,20.0,33.0,20,0.00,,,0.01,meteohub,2013-02-25 16:41:00,
2013-02-25 10:46:00,69.1,25.2,29.68,WNW,293,27.0,33.0,19,0.00,,,0.01,meteohub,2013-02-25 16:46:00,
2013-02-25 10:51:00,69.4,25.3,29.68,WNW,284,16.0,33.0,19,0.00,,,0.01,meteohub,2013-02-25 16:51:00,
2013-02-25 10:56:00,69.6,22.8,29.68,NW,305,19.0,33.0,17,0.00,,,0.01,meteohub,2013-02-25 16:56:00,
2013-02-25 11:01:00,69.3,21.2,29.68,NW,309,23.0,40.0,16,0.00,,,0.01,meteohub,2013-02-25 17:01:00,
2013-02-25 11:06:00,69.6,22.8,29.68,NW,307,10.0,40.0,17,0.00,,,0.01,meteohub,2013-02-25 17:06:00,
2013-02-25 11:11:00,69.8,21.6,29.68,WNW,291,21.0,40.0,16,0.00,,,0.01,meteohub,2013-02-25 17:11:00,
2013-02-25 11:16:00,70.0,20.1,29.69,WNW,292,24.0,33.0,15,0.00,,,0.01,meteohub,2013-02-25 17:16:00,
2013-02-25 11:21:00,70.2,20.3,29.69,WNW,291,15.0,32.0,15,0.00,,,0.01,meteohub,2013-02-25 17:21:00,
2013-02-25 11:26:00,70.0,18.5,29.69,WNW,303,18.0,38.0,14,0.00,,,0.01,meteohub,2013-02-25 17:26:00,
2013-02-25 11:31:00,70.0,18.5,29.69,WNW,295,29.0,38.0,14,0.00,,,0.01,meteohub,2013-02-25 17:31:00,
2013-02-25 11:36:00,70.0,16.9,29.69,WNW,298,26.0,38.0,13,0.00,,,0.01,meteohub,2013-02-25 17:36:00,
2013-02-25 11:41:00,70.2,17.1,29.69,NW,314,21.0,38.0,13,0.00,,,0.01,meteohub,2013-02-25 17:41:00,
2013-02-25 11:47:00,70.3,18.9,29.68,West,281,23.0,36.0,14,0.00,,,0.01,meteohub,2013-02-25 17:47:00,
2013-02-25 11:52:00,70.9,17.6,29.68,WNW,293,15.0,36.0,13,0.00,,,0.01,meteohub,2013-02-25 17:52:00,
2013-02-25 11:57:00,70.7,17.4,29.68,WNW,299,27.0,36.0,13,0.00,,,0.01,meteohub,2013-02-25 17:57:00,
2013-02-25 12:02:00,70.3,15.3,29.69,West,271,23.0,34.0,12,0.00,,,0.01,meteohub,2013-02-25 18:02:00,
2013-02-25 12:07:00,70.3,15.3,29.69,NW,306,17.0,38.0,12,0.00,,,0.01,meteohub,2013-02-25 18:07:00,
2013-02-25 12:12:00,70.9,15.8,29.68,NNW,339,27.0,38.0,12,0.00,,,0.01,meteohub,2013-02-25 18:12:00,
2013-02-25 12:17:00,70.7,15.6,29.69,NW,309,25.0,38.0,12,0.00,,,0.01,meteohub,2013-02-25 18:17:00,
2013-02-25 12:22:00,70.7,15.6,29.68,NW,323,23.0,41.0,12,0.00,,,0.01,meteohub,2013-02-25 18:22:00,
2013-02-25 12:27:00,70.3,15.3,29.68,NW,307,20.0,41.0,12,0.00,,,0.01,meteohub,2013-02-25 18:27:00,
2013-02-25 12:32:00,70.3,13.3,29.68,West,280,21.0,41.0,11,0.00,,,0.01,meteohub,2013-02-25 18:32:00,
2013-02-25 12:37:00,70.3,15.3,29.68,WNW,300,26.0,37.0,12,0.00,,,0.01,meteohub,2013-02-25 18:37:00,
2013-02-25 12:42:00,70.3,13.3,29.67,West,263,17.0,37.0,11,0.00,,,0.01,meteohub,2013-02-25 18:42:00,
2013-02-25 12:47:00,70.5,15.4,29.68,WNW,287,19.0,39.0,12,0.02,,,0.03,meteohub,2013-02-25 18:47:00,
2013-02-25 12:52:00,70.7,15.6,29.68,WNW,295,22.0,43.0,12,0.02,,,0.03,meteohub,2013-02-25 18:52:00,
2013-02-25 12:57:00,70.7,13.6,29.68,NNW,332,29.0,43.0,11,0.02,,,0.03,meteohub,2013-02-25 18:57:00,
2013-02-25 13:02:00,70.7,13.6,29.67,West,275,37.0,42.0,11,0.03,,,0.03,meteohub,2013-02-25 19:02:00,
2013-02-25 13:07:00,70.9,11.7,29.68,NW,304,29.0,43.0,10,0.03,,,0.04,meteohub,2013-02-25 19:07:00,
2013-02-25 13:12:00,71.1,13.8,29.67,NW,312,30.0,43.0,11,0.03,,,0.04,meteohub,2013-02-25 19:12:00,
2013-02-25 13:17:00,70.5,11.3,29.68,WNW,288,15.0,43.0,10,0.04,,,0.04,meteohub,2013-02-25 19:17:00,
2013-02-25 13:22:00,70.7,11.5,29.68,West,266,19.0,43.0,10,0.04,,,0.05,meteohub,2013-02-25 19:22:00,
2013-02-25 13:27:00,71.1,13.8,29.67,WNW,284,37.0,49.0,11,0.06,,,0.07,meteohub,2013-02-25 19:27:00,
2013-02-25 13:32:00,70.9,13.8,29.67,WNW,284,23.0,49.0,11,0.08,,,0.07,meteohub,2013-02-25 19:32:00,
2013-02-25 13:37:00,70.9,13.8,29.66,WNW,298,25.0,46.0,11,0.08,,,0.09,meteohub,2013-02-25 19:37:00,
2013-02-25 13:42:00,70.7,13.6,29.67,WNW,297,27.0,46.0,11,0.08,,,0.09,meteohub,2013-02-25 19:42:00,
2013-02-25 13:47:00,70.5,11.3,29.66,NW,309,22.0,38.0,10,0.06,,,0.09,meteohub,2013-02-25 19:47:00,
2013-02-25 13:52:00,71.4,12.0,29.65,NW,304,19.0,40.0,10,0.06,,,0.09,meteohub,2013-02-25 19:52:00,
2013-02-25 13:57:00,70.5,13.5,29.66,WNW,285,25.0,40.0,11,0.06,,,0.09,meteohub,2013-02-25 19:57:00,
2013-02-25 14:02:00,70.2,15.1,29.65,WNW,299,24.0,44.0,12,0.05,,,0.09,meteohub,2013-02-25 20:02:00,
2013-02-25 14:07:00,70.2,15.1,29.65,WNW,288,21.0,44.0,12,0.05,,,0.09,meteohub,2013-02-25 20:07:00,
2013-02-25 14:12:00,70.2,15.1,29.65,NW,307,29.0,40.0,12,0.06,,,0.10,meteohub,2013-02-25 20:12:00,
2013-02-25 14:17:00,70.0,16.9,29.65,West,280,30.0,42.0,13,0.07,,,0.11,meteohub,2013-02-25 20:17:00,
2013-02-25 14:22:00,70.2,17.1,29.66,NW,318,23.0,42.0,13,0.06,,,0.13,meteohub,2013-02-25 20:22:00,
2013-02-25 14:27:00,69.6,18.3,29.66,WNW,297,25.0,41.0,14,0.06,,,0.13,meteohub,2013-02-25 20:27:00,
2013-02-25 14:32:00,70.0,18.5,29.66,WNW,300,22.0,45.0,14,0.04,,,0.13,meteohub,2013-02-25 20:32:00,
2013-02-25 14:37:00,69.6,19.9,29.67,WNW,303,26.0,45.0,15,0.04,,,0.13,meteohub,2013-02-25 20:37:00,
2013-02-25 14:42:00,69.3,21.2,29.67,West,274,29.0,45.0,16,0.04,,,0.13,meteohub,2013-02-25 20:42:00,
2013-02-25 14:48:00,68.5,21.9,29.67,WNW,283,27.0,40.0,17,0.04,,,0.13,meteohub,2013-02-25 20:48:00,
2013-02-25 14:53:00,69.3,23.9,29.67,NW,309,24.0,43.0,18,0.04,,,0.13,meteohub,2013-02-25 20:53:00,
2013-02-25 14:58:00,68.4,24.4,29.67,NW,309,27.0,43.0,19,0.05,,,0.14,meteohub,2013-02-25 20:58:00,
2013-02-25 15:03:00,68.9,23.7,29.67,WNW,290,21.0,43.0,18,0.05,,,0.14,meteohub,2013-02-25 21:03:00,
2013-02-25 15:08:00,69.1,26.2,29.66,WNW,297,18.0,40.0,20,0.04,,,0.14,meteohub,2013-02-25 21:08:00,
2013-02-25 15:13:00,68.4,25.7,29.66,WNW,302,26.0,35.0,20,0.03,,,0.14,meteohub,2013-02-25 21:13:00,
2013-02-25 15:18:00,68.5,25.9,29.66,NW,323,21.0,35.0,20,0.02,,,0.14,meteohub,2013-02-25 21:18:00,
2013-02-25 15:23:00,68.7,24.8,29.66,NW,307,27.0,34.0,19,0.01,,,0.14,meteohub,2013-02-25 21:23:00,
2013-02-25 15:28:00,68.9,25.0,29.67,WNW,287,30.0,45.0,19,0.03,,,0.16,meteohub,2013-02-25 21:28:00,
2013-02-25 15:33:00,68.4,25.7,29.67,WNW,285,24.0,45.0,20,0.04,,,0.17,meteohub,2013-02-25 21:33:00,
2013-02-25 15:38:00,68.4,24.4,29.67,WNW,299,26.0,44.0,19,0.05,,,0.18,meteohub,2013-02-25 21:38:00,
2013-02-25 15:43:00,68.4,25.7,29.67,West,277,16.0,45.0,20,0.07,,,0.20,meteohub,2013-02-25 21:43:00,
2013-02-25 15:48:00,68.4,24.4,29.66,WNW,288,40.0,45.0,19,0.07,,,0.20,meteohub,2013-02-25 21:48:00,
2013-02-25 15:53:00,68.4,24.4,29.67,WNW,297,18.0,45.0,19,0.07,,,0.20,meteohub,2013-02-25 21:53:00,
2013-02-25 15:58:00,68.4,24.4,29.67,NW,321,29.0,42.0,19,0.07,,,0.21,meteohub,2013-02-25 21:58:00,
2013-02-25 16:03:00,68.2,24.3,29.67,WNW,298,25.0,42.0,19,0.07,,,0.21,meteohub,2013-02-25 22:03:00,
2013-02-25 16:08:00,67.8,25.3,29.67,NW,305,16.0,46.0,20,0.07,,,0.21,meteohub,2013-02-25 22:08:00,
2013-02-25 16:13:00,67.5,25.0,29.68,WNW,285,27.0,46.0,20,0.08,,,0.22,meteohub,2013-02-25 22:13:00,
2013-02-25 16:18:00,67.5,25.0,29.68,NW,323,25.0,46.0,20,0.08,,,0.22,meteohub,2013-02-25 22:18:00,
2013-02-25 16:23:00,67.1,24.6,29.68,NW,313,34.0,45.0,20,0.06,,,0.22,meteohub,2013-02-25 22:23:00,
2013-02-25 16:28:00,66.7,24.4,29.69,WNW,298,33.0,49.0,20,0.07,,,0.23,meteohub,2013-02-25 22:28:00,
2013-02-25 16:33:00,66.4,24.1,29.69,WNW,284,23.0,49.0,20,0.08,,,0.25,meteohub,2013-02-25 22:33:00,
2013-02-25 16:38:00,66.4,25.3,29.69,WNW,290,26.0,49.0,21,0.06,,,0.25,meteohub,2013-02-25 22:38:00,
2013-02-25 16:43:00,66.0,25.0,29.69,WNW,295,39.0,46.0,21,0.05,,,0.25,meteohub,2013-02-25 22:43:00,
2013-02-25 16:48:00,65.8,24.8,29.69,NW,312,15.0,46.0,21,0.05,,,0.25,meteohub,2013-02-25 22:48:00,
2013-02-25 16:53:00,65.8,24.8,29.69,WNW,301,26.0,45.0,21,0.08,,,0.28,meteohub,2013-02-25 22:53:00,
2013-02-25 16:58:00,66.2,25.2,29.69,NW,304,15.0,45.0,21,0.07,,,0.28,meteohub,2013-02-25 22:58:00,
2013-02-25 17:03:00,65.8,25.9,29.69,WNW,297,22.0,41.0,22,0.07,,,0.28,meteohub,2013-02-25 23:03:00,
2013-02-25 17:08:00,65.8,25.9,29.69,NW,312,28.0,41.0,22,0.07,,,0.28,meteohub,2013-02-25 23:08:00,
2013-02-25 17:14:00,66.0,26.1,29.69,WNW,299,25.0,36.0,22,0.06,,,0.28,meteohub,2013-02-25 23:14:00,
2013-02-25 17:19:00,66.0,26.1,29.69,NW,307,28.0,36.0,22,0.06,,,0.28,meteohub,2013-02-25 23:19:00,
2013-02-25 17:24:00,65.7,25.7,29.70,NW,304,35.0,38.0,22,0.06,,,0.28,meteohub,2013-02-25 23:24:00,
2013-02-25 17:29:00,65.7,25.7,29.70,WNW,292,29.0,38.0,22,0.04,,,0.28,meteohub,2013-02-25 23:29:00,
2013-02-25 17:34:00,65.7,25.7,29.70,NW,304,30.0,38.0,22,0.03,,,0.28,meteohub,2013-02-25 23:34:00,
2013-02-25 17:39:00,65.8,25.9,29.70,West,273,23.0,36.0,22,0.03,,,0.28,meteohub,2013-02-25 23:39:00,
2013-02-25 17:44:00,65.7,25.7,29.70,NW,312,28.0,40.0,22,0.04,,,0.29,meteohub,2013-02-25 23:44:00,
2013-02-25 17:49:00,65.7,25.7,29.69,WNW,283,24.0,41.0,22,0.02,,,0.29,meteohub,2013-02-25 23:49:00,
2013-02-25 17:54:00,65.7,25.7,29.70,WNW,300,24.0,44.0,22,0.02,,,0.30,meteohub,2013-02-25 23:54:00,
2013-02-25 17:59:00,65.5,25.7,29.70,West,278,17.0,44.0,22,0.03,,,0.31,meteohub,2013-02-25 23:59:00,
2013-02-25 18:05:00,65.3,25.5,29.70,NW,316,23.0,44.0,22,0.03,,,0.31,meteohub,2013-02-26 00:05:00,
2013-02-25 18:10:00,65.1,25.3,29.70,WNW,284,31.0,41.0,22,0.03,,,0.00,meteohub,2013-02-26 00:10:00,
2013-02-25 18:15:00,64.8,25.0,29.70,West,280,21.0,41.0,22,0.04,,,0.01,meteohub,2013-02-26 00:15:00,
2013-02-25 18:20:00,64.8,25.0,29.69,WNW,285,32.0,41.0,22,0.04,,,0.01,meteohub,2013-02-26 00:20:00,
2013-02-25 18:25:00,64.6,25.9,29.70,West,276,29.0,40.0,23,0.05,,,0.02,meteohub,2013-02-26 00:25:00,
2013-02-25 18:30:00,64.2,25.7,29.70,WNW,291,19.0,41.0,23,0.05,,,0.02,meteohub,2013-02-26 00:30:00,
2013-02-25 18:35:00,64.2,25.7,29.71,WNW,300,25.0,44.0,23,0.05,,,0.02,meteohub,2013-02-26 00:35:00,
2013-02-25 18:40:00,64.2,25.7,29.71,NW,309,21.0,44.0,23,0.05,,,0.02,meteohub,2013-02-26 00:40:00,
2013-02-25 18:45:00,64.0,25.5,29.72,WNW,294,20.0,36.0,23,0.04,,,0.02,meteohub,2013-02-26 00:45:00,
2013-02-25 18:50:00,64.0,25.5,29.72,WNW,295,16.0,36.0,23,0.04,,,0.02,meteohub,2013-02-26 00:50:00,
2013-02-25 18:55:00,63.9,25.3,29.73,WNW,299,22.0,39.0,23,0.03,,,0.02,meteohub,2013-02-26 00:55:00,
2013-02-25 19:00:00,63.7,26.2,29.73,WNW,300,22.0,39.0,24,0.02,,,0.02,meteohub,2013-02-26 01:00:00,
2013-02-25 19:05:00,63.5,26.1,29.74,NW,309,16.0,39.0,24,0.02,,,0.02,meteohub,2013-02-26 01:05:00,
2013-02-25 19:10:00,63.3,25.9,29.74,WNW,291,11.0,33.0,24,0.01,,,0.02,meteohub,2013-02-26 01:10:00,
2013-02-25 19:15:00,63.3,25.9,29.75,NW,326,10.0,27.0,24,0.01,,,0.02,meteohub,2013-02-26 01:15:00,
2013-02-25 19:20:00,63.3,25.9,29.75,NW,304,15.0,27.0,24,0.01,,,0.02,meteohub,2013-02-26 01:20:00,
2013-02-25 19:25:00,63.3,25.9,29.75,WNW,298,14.0,27.0,24,0.00,,,0.02,meteohub,2013-02-26 01:25:00,
2013-02-25 19:30:00,63.3,25.9,29.76,WNW,302,16.0,30.0,24,0.00,,,0.02,meteohub,2013-02-26 01:30:00,
2013-02-25 19:35:00,63.3,25.9,29.76,WNW,283,16.0,30.0,24,0.00,,,0.02,meteohub,2013-02-26 01:35:00,
2013-02-25 19:40:00,63.3,25.9,29.77,WNW,300,18.0,30.0,24,0.00,,,0.02,meteohub,2013-02-26 01:40:00,
2013-02-25 19:45:00,63.3,25.9,29.77,WNW,291,19.0,31.0,24,0.00,,,0.02,meteohub,2013-02-26 01:45:00,
2013-02-25 19:50:00,63.1,25.7,29.78,WNW,298,11.0,31.0,24,0.00,,,0.02,meteohub,2013-02-26 01:50:00,
2013-02-25 19:55:00,63.0,26.6,29.78,WNW,295,16.0,31.0,25,0.00,,,0.02,meteohub,2013-02-26 01:55:00,
2013-02-25 20:00:00,62.8,26.4,29.78,NW,314,14.0,29.0,25,0.00,,,0.02,meteohub,2013-02-26 02:00:00,
2013-02-25 20:05:00,62.8,26.4,29.78,WNW,295,13.0,27.0,25,0.00,,,0.02,meteohub,2013-02-26 02:05:00,
2013-02-25 20:10:00,62.4,26.1,29.79,West,277,16.0,28.0,25,0.00,,,0.02,meteohub,2013-02-26 02:10:00,
2013-02-25 20:15:00,62.4,26.1,29.78,NW,307,14.0,28.0,25,0.00,,,0.02,meteohub,2013-02-26 02:15:00,
2013-02-25 20:20:00,62.2,26.1,29.78,NW,307,13.0,28.0,25,0.00,,,0.02,meteohub,2013-02-26 02:20:00,
2013-02-25 20:25:00,62.1,25.9,29.79,NW,312,19.0,27.0,25,0.00,,,0.02,meteohub,2013-02-26 02:25:00,
2013-02-25 20:30:00,62.1,25.9,29.79,WNW,302,14.0,27.0,25,0.00,,,0.02,meteohub,2013-02-26 02:30:00,
2013-02-25 20:35:00,62.1,26.8,29.79,NW,316,14.0,26.0,26,0.00,,,0.02,meteohub,2013-02-26 02:35:00,
2013-02-25 20:40:00,61.9,26.6,29.78,NW,309,13.0,29.0,26,0.00,,,0.02,meteohub,2013-02-26 02:40:00,
2013-02-25 20:45:00,61.7,26.4,29.79,NW,307,12.0,29.0,26,0.00,,,0.02,meteohub,2013-02-26 02:45:00,
2013-02-25 20:50:00,61.5,26.2,29.78,WNW,288,16.0,24.0,26,0.00,,,0.02,meteohub,2013-02-26 02:50:00,
2013-02-25 20:55:00,61.2,27.0,29.79,NW,319,16.0,23.0,27,0.00,,,0.02,meteohub,2013-02-26 02:55:00,
2013-02-25 21:00:00,61.2,27.0,29.79,WNW,288,19.0,23.0,27,0.00,,,0.02,meteohub,2013-02-26 03:00:00,
2013-02-25 21:05:00,60.8,26.6,29.79,WNW,302,13.0,20.0,27,0.00,,,0.02,meteohub,2013-02-26 03:05:00,
2013-02-25 21:11:00,60.6,26.4,29.79,NW,304,11.0,20.0,27,0.00,,,0.02,meteohub,2013-02-26 03:11:00,
2013-02-25 21:16:00,60.4,27.1,29.80,West,274,11.0,20.0,28,0.00,,,0.02,meteohub,2013-02-26 03:16:00,
2013-02-25 21:21:00,60.4,27.1,29.80,NW,306,9.0,20.0,28,0.00,,,0.02,meteohub,2013-02-26 03:21:00,
2013-02-25 21:26:00,60.4,27.1,29.79,NW,307,14.0,20.0,28,0.00,,,0.02,meteohub,2013-02-26 03:26:00,
2013-02-25 21:31:00,60.4,27.1,29.79,WNW,302,12.0,23.0,28,0.00,,,0.02,meteohub,2013-02-26 03:31:00,
2013-02-25 21:36:00,60.3,27.0,29.80,WNW,297,18.0,24.0,28,0.00,,,0.02,meteohub,2013-02-26 03:36:00,
2013-02-25 21:41:00,60.3,27.0,29.80,WNW,300,11.0,24.0,28,0.00,,,0.02,meteohub,2013-02-26 03:41:00,
2013-02-25 21:46:00,60.1,26.8,29.80,NNE,13,12.0,24.0,28,0.00,,,0.02,meteohub,2013-02-26 03:46:00,
2013-02-25 21:51:00,60.1,26.8,29.81,NW,312,12.0,18.0,28,0.00,,,0.02,meteohub,2013-02-26 03:51:00,
2013-02-25 21:56:00,59.9,26.8,29.81,NW,314,9.0,19.0,28,0.00,,,0.02,meteohub,2013-02-26 03:56:00,
2013-02-25 22:01:00,59.7,27.3,29.81,WNW,297,14.0,19.0,29,0.00,,,0.02,meteohub,2013-02-26 04:01:00,
2013-02-25 22:06:00,59.5,27.3,29.81,NW,314,9.0,20.0,29,0.00,,,0.02,meteohub,2013-02-26 04:06:00,
2013-02-25 22:12:00,59.2,27.0,29.81,NW,312,11.0,20.0,29,0.00,,,0.02,meteohub,2013-02-26 04:12:00,
2013-02-25 22:17:00,59.2,27.7,29.81,NW,317,6.0,20.0,30,0.00,,,0.02,meteohub,2013-02-26 04:17:00,
2013-02-25 22:22:00,58.8,27.5,29.82,WNW,297,10.0,17.0,30,0.00,,,0.02,meteohub,2013-02-26 04:22:00,
2013-02-25 22:27:00,58.6,27.3,29.82,NW,313,12.0,17.0,30,0.00,,,0.02,meteohub,2013-02-26 04:27:00,
2013-02-25 22:32:00,58.5,27.1,29.82,NW,312,6.0,17.0,30,0.00,,,0.02,meteohub,2013-02-26 04:32:00,
2013-02-25 22:37:00,58.5,27.9,29.82,NW,316,7.0,17.0,31,0.00,,,0.02,meteohub,2013-02-26 04:37:00,
2013-02-25 22:42:00,58.1,27.7,29.83,NW,316,9.0,16.0,31,0.00,,,0.02,meteohub,2013-02-26 04:42:00,
2013-02-25 22:47:00,57.7,28.0,29.83,NW,313,6.0,16.0,32,0.00,,,0.02,meteohub,2013-02-26 04:47:00,
2013-02-25 22:52:00,57.4,28.6,29.83,North,4,11.0,16.0,33,0.00,,,0.02,meteohub,2013-02-26 04:52:00,
2013-02-25 22:57:00,57.2,28.4,29.83,NW,312,9.0,16.0,33,0.00,,,0.02,meteohub,2013-02-26 04:57:00,
2013-02-25 23:00:00,57.0,28.9,29.83,NW,316,5.0,16.0,34,0.00,,,0.02,meteohub,2013-02-26 05:00:00,
2013-02-25 23:01:00,56.8,28.8,29.83,NNW,328,10.0,17.0,34,0.00,,,0.02,meteohub,2013-02-26 05:01:00,
2013-02-25 23:06:00,56.7,28.6,29.84,NNW,329,6.0,17.0,34,0.00,,,0.02,meteohub,2013-02-26 05:06:00,
2013-02-25 23:11:00,56.3,28.9,29.84,NW,307,8.0,18.0,35,0.00,,,0.02,meteohub,2013-02-26 05:11:00,
2013-02-25 23:16:00,56.1,29.5,29.84,NW,307,10.0,18.0,36,0.00,,,0.02,meteohub,2013-02-26 05:16:00,
2013-02-25 23:21:00,55.9,29.3,29.84,WNW,299,6.0,18.0,36,0.00,,,0.02,meteohub,2013-02-26 05:21:00,
2013-02-25 23:26:00,55.8,29.1,29.84,NW,305,10.0,15.0,36,0.00,,,0.02,meteohub,2013-02-26 05:26:00,
2013-02-25 23:31:00,55.6,29.7,29.84,NW,316,7.0,15.0,37,0.00,,,0.02,meteohub,2013-02-26 05:31:00,
2013-02-25 23:36:00,55.4,29.5,29.84,NW,316,9.0,14.0,37,0.00,,,0.02,meteohub,2013-02-26 05:36:00,
2013-02-25 23:41:00,55.2,29.5,29.85,NW,311,13.0,14.0,37,0.00,,,0.02,meteohub,2013-02-26 05:41:00,
2013-02-25 23:46:00,55.2,29.5,29.85,NW,321,8.0,14.0,37,0.00,,,0.02,meteohub,2013-02-26 05:46:00,
2013-02-25 23:51:00,55.0,29.8,29.85,NNW,344,7.0,13.0,38,0.00,,,0.02,meteohub,2013-02-26 05:51:00,
2013-02-25 23:56:00,54.9,29.7,29.85,NW,316,9.0,13.0,38,0.00,,,0.02,meteohub,2013-02-26 05:56:00,